Time;durP1;ratioP1;P1;durP2;ratioP2;P2;SDS_P1;SDS_P2;PMS_P1;PMS_P2;Temp;Humidity;BMP_temperature;BMP_pressure;BME280_temperature;BME280_humidity;BME280_pressure;Samples;Min_cycle;Max_cycle;Signal;HPM_P1;HPM_P2
2023/05/02 00:01:49;;;;;;;;;;;19.00;88.90;;;;;;5115226;28;19943;-63
2023/05/02 00:04:15;;;;;;;;;;;19.00;88.80;;;;;;5114965;27;19964;-64
2023/05/02 00:06:41;;;;;;;;;;;19.00;88.70;;;;;;5115437;28;20301;-63
2023/05/02 00:09:07;;;;;;;;;;;19.00;88.70;;;;;;5115112;28;20000;-63
2023/05/02 00:11:32;;;;;;;;;;;19.00;88.70;;;;;;5115660;28;19973;-63
2023/05/02 00:13:57;;;;;;;;;;;19.00;88.60;;;;;;5114823;28;19911;-63
2023/05/02 00:16:23;;;;;;;;;;;19.00;88.60;;;;;;5115529;27;19999;-63
2023/05/02 00:18:48;;;;;;;;;;;19.00;89.00;;;;;;5114494;28;19964;-63
2023/05/02 00:21:14;;;;;;;;;;;19.00;88.60;;;;;;5115210;28;19911;-63
2023/05/02 00:23:40;;;;;;;;;;;19.00;88.70;;;;;;5113090;28;19978;-63
2023/05/02 00:26:08;;;;;;;;;;;19.00;88.70;;;;;;5115191;28;19907;-63
2023/05/02 00:28:34;;;;;;;;;;;19.00;88.80;;;;;;5114839;28;20272;-63
2023/05/02 00:31:00;;;;;;;;;;;19.00;88.70;;;;;;5113811;28;19998;-64
2023/05/02 00:33:25;;;;;;;;;;;19.00;88.70;;;;;;5114096;28;19908;-63
2023/05/02 00:35:51;;;;;;;;;;;19.10;88.80;;;;;;5114704;28;19914;-63
2023/05/02 00:38:17;;;;;;;;;;;19.10;88.80;;;;;;5114960;28;20255;-63
2023/05/02 00:40:46;;;;;;;;;;;19.10;88.80;;;;;;5114934;28;19957;-64
2023/05/02 00:43:12;;;;;;;;;;;19.10;88.60;;;;;;5114711;27;19924;-63
2023/05/02 00:45:39;;;;;;;;;;;19.10;88.20;;;;;;5113846;28;19995;-63
2023/05/02 00:48:06;;;;;;;;;;;19.10;88.10;;;;;;5113615;28;19915;-64
2023/05/02 00:50:31;;;;;;;;;;;19.10;88.10;;;;;;5114113;28;19960;-62
2023/05/02 00:52:59;;;;;;;;;;;19.10;88.10;;;;;;5114531;28;19912;-64
2023/05/02 00:55:25;;;;;;;;;;;19.10;88.10;;;;;;5113859;28;19919;-64
2023/05/02 00:57:51;;;;;;;;;;;19.10;88.10;;;;;;5114730;28;20262;-64
2023/05/02 01:00:16;;;;;;;;;;;19.00;88.10;;;;;;5114429;28;20315;-64
2023/05/02 01:02:48;;;;;;;;;;;19.10;88.20;;;;;;5114531;28;19995;-64
2023/05/02 01:05:19;;;;;;;;;;;19.00;88.00;;;;;;5114271;28;20010;-64
2023/05/02 01:07:45;;;;;;;;;;;19.10;88.00;;;;;;5113224;28;20015;-63
2023/05/02 01:10:10;;;;;;;;;;;19.10;88.10;;;;;;5114271;28;19958;-63
2023/05/02 01:12:45;;;;;;;;;;;19.00;88.10;;;;;;5114238;28;20294;-63
2023/05/02 01:15:13;;;;;;;;;;;19.00;88.00;;;;;;5113383;28;20010;-63
2023/05/02 01:17:39;;;;;;;;;;;19.00;87.90;;;;;;5114285;28;19911;-64
2023/05/02 01:20:07;;;;;;;;;;;19.00;88.00;;;;;;5113165;28;19912;-63
2023/05/02 01:22:33;;;;;;;;;;;19.00;87.90;;;;;;5114437;28;19923;-63
2023/05/02 01:25:17;;;;;;;;;;;19.00;87.90;;;;;;5113462;28;19920;-63
2023/05/02 01:27:49;;;;;;;;;;;19.00;87.90;;;;;;5113706;28;19912;-64
2023/05/02 01:30:16;;;;;;;;;;;19.00;87.90;;;;;;5113423;28;19994;-64
2023/05/02 01:32:44;;;;;;;;;;;19.00;88.00;;;;;;5114246;28;19914;-64
2023/05/02 01:35:10;;;;;;;;;;;19.00;88.10;;;;;;5113118;28;20341;-64
2023/05/02 01:37:37;;;;;;;;;;;19.00;88.60;;;;;;5111130;28;19939;-64
2023/05/02 01:40:03;;;;;;;;;;;19.10;88.30;;;;;;5113089;28;19922;-64
2023/05/02 01:42:30;;;;;;;;;;;19.00;88.50;;;;;;5113818;28;19908;-64
2023/05/02 01:44:57;;;;;;;;;;;19.10;88.70;;;;;;5115387;28;20358;-64
2023/05/02 01:47:23;;;;;;;;;;;19.10;88.80;;;;;;5128781;28;19912;-58
2023/05/02 01:49:49;;;;;;;;;;;19.10;88.90;;;;;;5113533;28;20348;-64
2023/05/02 01:52:15;;;;;;;;;;;19.10;89.00;;;;;;5114197;28;19915;-64
2023/05/02 01:54:41;;;;;;;;;;;19.10;89.00;;;;;;5114128;28;19915;-64
2023/05/02 01:57:08;;;;;;;;;;;19.10;88.80;;;;;;5113791;28;19912;-64
2023/05/02 01:59:34;;;;;;;;;;;19.10;88.70;;;;;;5112528;28;19912;-63
2023/05/02 02:02:01;;;;;;;;;;;19.10;88.80;;;;;;5113967;28;20002;-64
2023/05/02 02:04:27;;;;;;;;;;;19.10;88.60;;;;;;5114085;27;19963;-64
2023/05/02 02:06:56;;;;;;;;;;;19.10;88.60;;;;;;5124820;27;19907;-64
2023/05/02 02:09:22;;;;;;;;;;;19.10;88.30;;;;;;5127149;27;19912;-64
2023/05/02 02:12:02;;;;;;;;;;;19.10;88.10;;;;;;5118042;27;19912;-64
2023/05/02 02:14:32;;;;;;;;;;;19.10;88.10;;;;;;5135379;27;19956;-63
2023/05/02 02:17:00;;;;;;;;;;;19.00;88.10;;;;;;5112694;28;19912;-64
2023/05/02 02:19:26;;;;;;;;;;;19.00;88.10;;;;;;5117295;28;19908;-64
2023/05/02 02:21:54;;;;;;;;;;;19.10;88.20;;;;;;5117155;28;19908;-63
2023/05/02 02:24:20;;;;;;;;;;;19.00;88.20;;;;;;5117095;28;19938;-64
2023/05/02 02:26:46;;;;;;;;;;;19.00;88.20;;;;;;5116568;27;19915;-63
2023/05/02 02:29:11;;;;;;;;;;;19.00;88.20;;;;;;5114265;27;19994;-64
2023/05/02 02:31:38;;;;;;;;;;;19.00;88.40;;;;;;5117764;28;19907;-63
2023/05/02 02:34:04;;;;;;;;;;;19.00;88.50;;;;;;5117324;28;19908;-62
2023/05/02 02:36:43;;;;;;;;;;;19.00;88.40;;;;;;5115738;28;19912;-63
2023/05/02 02:39:27;;;;;;;;;;;19.00;88.40;;;;;;5117253;28;19915;-61
2023/05/02 02:41:59;;;;;;;;;;;19.00;88.40;;;;;;5116812;27;19912;-64
2023/05/02 02:44:29;;;;;;;;;;;19.00;88.10;;;;;;5117117;28;20374;-64
2023/05/02 02:47:01;;;;;;;;;;;19.00;88.10;;;;;;5114014;27;19916;-63
2023/05/02 02:49:46;;;;;;;;;;;19.00;88.20;;;;;;5114995;28;20010;-60
2023/05/02 02:52:32;;;;;;;;;;;19.00;88.00;;;;;;5115202;28;19908;-62
2023/05/02 02:54:59;;;;;;;;;;;19.00;88.20;;;;;;5114995;28;19912;-64
2023/05/02 02:57:34;;;;;;;;;;;19.00;88.70;;;;;;5114128;27;19947;-62
2023/05/02 03:00:03;;;;;;;;;;;19.00;88.90;;;;;;5114790;27;19914;-63
2023/05/02 03:02:30;;;;;;;;;;;19.10;89.00;;;;;;5114938;28;19908;-63
2023/05/02 03:04:56;;;;;;;;;;;19.00;89.00;;;;;;5116603;28;19967;-63
2023/05/02 03:07:22;;;;;;;;;;;19.10;89.10;;;;;;5115984;27;19939;-63
2023/05/02 03:09:47;;;;;;;;;;;19.10;89.20;;;;;;5116535;28;20361;-63
2023/05/02 03:12:13;;;;;;;;;;;19.10;89.30;;;;;;5116560;28;19914;-63
2023/05/02 03:14:39;;;;;;;;;;;19.10;89.20;;;;;;5114158;28;19911;-63
2023/05/02 03:17:05;;;;;;;;;;;19.00;89.20;;;;;;5116426;28;19915;-62
2023/05/02 03:19:30;;;;;;;;;;;19.00;89.20;;;;;;5116365;28;19915;-63
2023/05/02 03:21:56;;;;;;;;;;;19.00;89.30;;;;;;5116102;28;20538;-63
2023/05/02 03:24:21;;;;;;;;;;;19.00;89.30;;;;;;5115837;28;19915;-63
2023/05/02 03:26:47;;;;;;;;;;;19.00;89.30;;;;;;5114557;27;19999;-64
2023/05/02 03:29:15;;;;;;;;;;;19.00;89.30;;;;;;5116211;28;19912;-63
2023/05/02 03:31:41;;;;;;;;;;;19.00;89.30;;;;;;5116426;28;20354;-63
2023/05/02 03:34:06;;;;;;;;;;;19.00;89.30;;;;;;5116010;28;19912;-63
2023/05/02 03:36:32;;;;;;;;;;;19.00;89.30;;;;;;5114745;28;19912;-63
2023/05/02 03:38:57;;;;;;;;;;;19.00;89.20;;;;;;5115918;28;19915;-63
2023/05/02 03:41:23;;;;;;;;;;;19.00;89.30;;;;;;5115935;28;20414;-63
2023/05/02 03:43:49;;;;;;;;;;;19.00;89.10;;;;;;5115390;28;19919;-63
2023/05/02 03:46:15;;;;;;;;;;;19.00;88.80;;;;;;5114753;28;20004;-63
2023/05/02 03:48:41;;;;;;;;;;;19.00;88.90;;;;;;5115745;28;19912;-63
2023/05/02 03:51:08;;;;;;;;;;;19.00;88.90;;;;;;5115477;28;19912;-63
2023/05/02 03:53:33;;;;;;;;;;;19.00;88.80;;;;;;5115736;28;19931;-63
2023/05/02 03:55:59;;;;;;;;;;;19.00;88.90;;;;;;5114492;28;20362;-63
2023/05/02 03:58:25;;;;;;;;;;;19.00;88.80;;;;;;5115588;28;19908;-63
2023/05/02 04:00:54;;;;;;;;;;;19.00;88.60;;;;;;5115289;28;19939;-63
2023/05/02 04:03:20;;;;;;;;;;;19.00;88.90;;;;;;5115419;28;19919;-65
2023/05/02 04:05:46;;;;;;;;;;;19.00;88.70;;;;;;5115184;28;19907;-64
2023/05/02 04:08:12;;;;;;;;;;;19.00;89.10;;;;;;5114483;27;20307;-63
2023/05/02 04:10:37;;;;;;;;;;;19.00;89.30;;;;;;5115402;28;19960;-63
2023/05/02 04:13:03;;;;;;;;;;;19.00;90.00;;;;;;5115510;28;19911;-63
2023/05/02 04:15:31;;;;;;;;;;;19.00;89.40;;;;;;5114282;27;19954;-64
2023/05/02 04:17:57;;;;;;;;;;;19.00;89.50;;;;;;5114872;28;19934;-64
2023/05/02 04:20:22;;;;;;;;;;;19.00;89.50;;;;;;5114782;28;20274;-63
2023/05/02 04:22:49;;;;;;;;;;;19.00;89.50;;;;;;5114691;28;19908;-63
2023/05/02 04:25:14;;;;;;;;;;;19.00;89.50;;;;;;5114034;28;19912;-63
2023/05/02 04:27:40;;;;;;;;;;;19.00;89.70;;;;;;5114121;28;19915;-63
2023/05/02 04:30:05;;;;;;;;;;;19.00;89.70;;;;;;5114800;28;20274;-64
2023/05/02 04:32:31;;;;;;;;;;;19.00;89.70;;;;;;5114804;28;19998;-64
2023/05/02 04:34:57;;;;;;;;;;;19.00;89.70;;;;;;5113836;27;19926;-63
2023/05/02 04:37:22;;;;;;;;;;;19.00;89.60;;;;;;5113929;28;20354;-63
2023/05/02 04:39:48;;;;;;;;;;;19.00;89.10;;;;;;5114706;28;19908;-64
2023/05/02 04:42:13;;;;;;;;;;;19.00;88.90;;;;;;5114711;28;19912;-63
2023/05/02 04:44:39;;;;;;;;;;;19.00;89.20;;;;;;5114875;28;20419;-63
2023/05/02 04:47:04;;;;;;;;;;;19.00;88.60;;;;;;5113912;28;19919;-63
2023/05/02 04:49:30;;;;;;;;;;;19.00;88.60;;;;;;5114617;28;19915;-64
2023/05/02 04:51:56;;;;;;;;;;;19.00;88.50;;;;;;5114652;27;20173;-64
2023/05/02 04:54:22;;;;;;;;;;;19.00;88.50;;;;;;5114545;28;19912;-63
2023/05/02 04:56:47;;;;;;;;;;;19.00;88.60;;;;;;5112874;28;20345;-63
2023/05/02 04:59:13;;;;;;;;;;;19.00;88.60;;;;;;5109264;27;19919;-64
2023/05/02 05:01:38;;;;;;;;;;;19.00;88.60;;;;;;5113919;28;19911;-63
2023/05/02 05:04:04;;;;;;;;;;;19.00;88.50;;;;;;5113434;27;20264;-63
2023/05/02 05:06:30;;;;;;;;;;;19.00;88.50;;;;;;5117571;27;19907;-64
2023/05/02 05:08:56;;;;;;;;;;;19.00;88.60;;;;;;5113807;28;19946;-64
2023/05/02 05:11:22;;;;;;;;;;;19.00;88.90;;;;;;5112312;28;20286;-63
2023/05/02 05:13:47;;;;;;;;;;;19.00;88.60;;;;;;5113802;28;20006;-63
2023/05/02 05:16:13;;;;;;;;;;;19.00;88.50;;;;;;5123125;28;20406;-64
2023/05/02 05:18:41;;;;;;;;;;;19.10;88.60;;;;;;5116760;27;19912;-63
2023/05/02 05:21:07;;;;;;;;;;;19.00;88.70;;;;;;5098204;28;20611;-64
2023/05/02 05:23:33;;;;;;;;;;;19.00;85.30;;;;;;5113597;27;19927;-59
2023/05/02 05:26:07;;;;;;;;;;;18.90;85.10;;;;;;5121784;28;19911;-60
2023/05/02 05:28:33;;;;;;;;;;;18.90;86.10;;;;;;5115808;27;19912;-60
2023/05/02 05:31:03;;;;;;;;;;;18.90;86.60;;;;;;5114282;28;19953;-61
2023/05/02 05:33:28;;;;;;;;;;;18.90;87.40;;;;;;5125070;28;20362;-60
2023/05/02 05:35:54;;;;;;;;;;;18.90;87.90;;;;;;5129388;27;19912;-60
2023/05/02 05:38:19;;;;;;;;;;;18.90;88.30;;;;;;5121831;27;20336;-60
2023/05/02 05:40:47;;;;;;;;;;;18.90;88.50;;;;;;5120243;27;19912;-61
2023/05/02 05:43:13;;;;;;;;;;;19.00;88.50;;;;;;5125069;27;19927;-60
2023/05/02 05:45:38;;;;;;;;;;;19.00;88.80;;;;;;5133096;27;19907;-61
2023/05/02 05:48:04;;;;;;;;;;;19.00;89.60;;;;;;5118884;27;20297;-58
2023/05/02 05:50:30;;;;;;;;;;;19.00;89.10;;;;;;5137404;27;19987;-61
2023/05/02 05:52:55;;;;;;;;;;;19.00;89.20;;;;;;5130634;27;20385;-62
2023/05/02 05:55:20;;;;;;;;;;;19.00;89.30;;;;;;5117433;28;19951;-60
2023/05/02 05:57:46;;;;;;;;;;;19.00;89.20;;;;;;5126713;27;19912;-61
2023/05/02 06:00:12;;;;;;;;;;;19.00;89.20;;;;;;5137938;27;19966;-59
2023/05/02 06:02:37;;;;;;;;;;;19.00;89.20;;;;;;5138220;27;19957;-62
2023/05/02 06:05:03;;;;;;;;;;;19.00;89.20;;;;;;5116729;27;19955;-62
2023/05/02 06:07:28;;;;;;;;;;;19.10;89.30;;;;;;5117108;28;20043;-62
2023/05/02 06:09:54;;;;;;;;;;;19.10;89.30;;;;;;5116235;28;19915;-62
2023/05/02 06:12:20;;;;;;;;;;;19.10;89.30;;;;;;5115599;27;19919;-61
2023/05/02 06:14:45;;;;;;;;;;;19.10;89.30;;;;;;5124318;27;19955;-59
2023/05/02 06:17:11;;;;;;;;;;;19.10;89.30;;;;;;5137773;27;19911;-61
2023/05/02 06:19:36;;;;;;;;;;;19.10;89.20;;;;;;5138172;27;19919;-60
2023/05/02 06:22:02;;;;;;;;;;;19.10;89.20;;;;;;5117581;27;20243;-61
2023/05/02 06:24:27;;;;;;;;;;;19.10;89.20;;;;;;5117090;28;20061;-62
2023/05/02 06:26:53;;;;;;;;;;;19.10;89.20;;;;;;5115732;28;19947;-62
2023/05/02 06:29:18;;;;;;;;;;;19.10;89.20;;;;;;5115672;28;19915;-61
2023/05/02 06:31:43;;;;;;;;;;;19.10;89.20;;;;;;5116458;28;19908;-62
2023/05/02 06:34:09;;;;;;;;;;;19.10;89.20;;;;;;5117324;28;19912;-62
2023/05/02 06:36:34;;;;;;;;;;;19.10;89.30;;;;;;5115377;28;19908;-62
2023/05/02 06:39:00;;;;;;;;;;;19.10;89.30;;;;;;5116866;28;19912;-62
2023/05/02 06:41:25;;;;;;;;;;;19.10;89.30;;;;;;5116877;28;19954;-62
2023/05/02 06:43:51;;;;;;;;;;;19.10;89.30;;;;;;5116694;28;19967;-62
2023/05/02 06:46:17;;;;;;;;;;;19.10;89.40;;;;;;5117440;27;20385;-63
2023/05/02 06:48:43;;;;;;;;;;;19.10;89.40;;;;;;5121298;27;19976;-62
2023/05/02 06:51:08;;;;;;;;;;;19.10;89.40;;;;;;5119977;27;19912;-62
2023/05/02 06:53:34;;;;;;;;;;;19.10;89.40;;;;;;5116299;27;19915;-63
2023/05/02 06:55:59;;;;;;;;;;;19.10;89.40;;;;;;5115361;27;19912;-63
2023/05/02 06:58:25;;;;;;;;;;;19.10;89.40;;;;;;5121224;27;19953;-62
2023/05/02 07:00:50;;;;;;;;;;;19.20;89.50;;;;;;5129620;27;19912;-62
2023/05/02 07:03:15;;;;;;;;;;;19.20;89.50;;;;;;5132880;27;20046;-63
2023/05/02 07:05:41;;;;;;;;;;;19.20;89.50;;;;;;5125163;27;19912;-63
2023/05/02 07:08:07;;;;;;;;;;;19.20;89.50;;;;;;5116627;27;19922;-63
2023/05/02 07:10:33;;;;;;;;;;;19.30;89.60;;;;;;5115035;27;19957;-63
2023/05/02 07:12:58;;;;;;;;;;;19.20;89.50;;;;;;5115891;27;19959;-64
2023/05/02 07:15:24;;;;;;;;;;;19.30;90.00;;;;;;5130296;27;20018;-63
2023/05/02 07:17:50;;;;;;;;;;;19.30;89.60;;;;;;5114863;27;20334;-63
2023/05/02 07:20:15;;;;;;;;;;;19.30;89.50;;;;;;5127347;27;19915;-63
2023/05/02 07:22:41;;;;;;;;;;;19.30;89.60;;;;;;5119528;27;19916;-64
2023/05/02 07:25:07;;;;;;;;;;;19.30;89.60;;;;;;5112886;27;19931;-58
2023/05/02 07:27:32;;;;;;;;;;;19.30;89.50;;;;;;5121491;27;19919;-60
2023/05/02 07:29:58;;;;;;;;;;;19.30;89.60;;;;;;5115092;27;19916;-63
2023/05/02 07:32:25;;;;;;;;;;;19.30;89.50;;;;;;5122053;27;19977;-63
2023/05/02 07:34:54;;;;;;;;;;;19.30;89.60;;;;;;5112025;27;19916;-63
2023/05/02 07:37:20;;;;;;;;;;;19.30;89.50;;;;;;5115175;27;19955;-64
2023/05/02 07:39:46;;;;;;;;;;;19.30;89.60;;;;;;5115751;27;20274;-63
2023/05/02 07:42:11;;;;;;;;;;;19.30;89.60;;;;;;5128556;27;19921;-63
2023/05/02 07:44:37;;;;;;;;;;;19.30;89.60;;;;;;5131485;27;19925;-62
2023/05/02 07:47:02;;;;;;;;;;;19.30;89.60;;;;;;5123637;27;19908;-60
2023/05/02 07:49:28;;;;;;;;;;;19.30;89.50;;;;;;5128760;27;19907;-63
2023/05/02 07:51:53;;;;;;;;;;;19.30;89.60;;;;;;5136219;27;19914;-64
2023/05/02 07:54:19;;;;;;;;;;;19.30;89.60;;;;;;5117647;27;19915;-63
2023/05/02 07:56:46;;;;;;;;;;;19.30;89.60;;;;;;5113706;27;20332;-64
2023/05/02 07:59:11;;;;;;;;;;;19.30;89.60;;;;;;5131066;27;19912;-62
2023/05/02 08:01:39;;;;;;;;;;;19.30;89.60;;;;;;5130047;27;19922;-63
2023/05/02 08:04:04;;;;;;;;;;;19.30;89.60;;;;;;5135729;27;20009;-63
2023/05/02 08:06:31;;;;;;;;;;;19.30;89.60;;;;;;5109963;27;19994;-62
2023/05/02 08:08:57;;;;;;;;;;;19.30;89.60;;;;;;5106858;27;19916;-63
2023/05/02 08:11:24;;;;;;;;;;;19.30;89.60;;;;;;5113845;28;20002;-64
2023/05/02 08:13:50;;;;;;;;;;;19.30;89.60;;;;;;5114997;28;20246;-63
2023/05/02 08:16:15;;;;;;;;;;;19.30;89.70;;;;;;5116141;27;20011;-64
2023/05/02 08:18:41;;;;;;;;;;;19.30;89.70;;;;;;5111933;28;19920;-63
2023/05/02 08:21:07;;;;;;;;;;;19.30;89.60;;;;;;5114223;28;19919;-64
2023/05/02 08:23:32;;;;;;;;;;;19.30;89.70;;;;;;5114567;27;19927;-63
2023/05/02 08:25:58;;;;;;;;;;;19.30;89.70;;;;;;5114741;28;19908;-62
2023/05/02 08:28:24;;;;;;;;;;;19.30;89.70;;;;;;5118599;27;20293;-64
2023/05/02 08:30:49;;;;;;;;;;;19.30;89.70;;;;;;5134610;27;19911;-63
2023/05/02 08:33:15;;;;;;;;;;;19.30;89.70;;;;;;5129772;27;20230;-63
2023/05/02 08:35:40;;;;;;;;;;;19.30;89.70;;;;;;5119169;27;19918;-63
2023/05/02 08:38:06;;;;;;;;;;;19.30;89.70;;;;;;5111325;28;19915;-62
2023/05/02 08:40:35;;;;;;;;;;;19.30;89.80;;;;;;5114637;28;19952;-63
2023/05/02 08:43:01;;;;;;;;;;;19.40;89.80;;;;;;5128351;27;19919;-63
2023/05/02 08:45:29;;;;;;;;;;;19.40;89.80;;;;;;5131702;27;19919;-63
2023/05/02 08:47:55;;;;;;;;;;;19.40;89.80;;;;;;5118126;27;20354;-62
2023/05/02 08:50:21;;;;;;;;;;;19.40;89.80;;;;;;5114391;27;20018;-62
2023/05/02 08:52:47;;;;;;;;;;;19.40;89.80;;;;;;5111406;27;19968;-58
2023/05/02 08:55:13;;;;;;;;;;;19.40;89.80;;;;;;5114060;28;19908;-62
2023/05/02 08:57:39;;;;;;;;;;;19.40;89.80;;;;;;5114225;28;20298;-63
2023/05/02 09:00:06;;;;;;;;;;;19.40;89.70;;;;;;5115180;27;20340;-62
2023/05/02 09:02:51;;;;;;;;;;;19.40;89.70;;;;;;5114528;27;19918;-63
2023/05/02 09:05:19;;;;;;;;;;;19.40;89.80;;;;;;5133322;27;19924;-62
2023/05/02 09:07:48;;;;;;;;;;;19.40;89.70;;;;;;5131127;27;20267;-62
2023/05/02 09:10:14;;;;;;;;;;;19.40;89.80;;;;;;5124761;27;19912;-67
2023/05/02 09:12:40;;;;;;;;;;;19.40;89.80;;;;;;5115864;27;19912;-65
2023/05/02 09:15:13;;;;;;;;;;;19.40;89.80;;;;;;5120938;27;19908;-63
2023/05/02 09:17:48;;;;;;;;;;;19.40;89.80;;;;;;5119613;27;19915;-62
2023/05/02 09:20:14;;;;;;;;;;;19.40;89.90;;;;;;5120788;27;20357;-62
2023/05/02 09:22:47;;;;;;;;;;;19.40;89.70;;;;;;5120601;27;19911;-59
2023/05/02 09:25:13;;;;;;;;;;;19.40;89.80;;;;;;5123021;27;19916;-58
2023/05/02 09:27:49;;;;;;;;;;;19.40;89.80;;;;;;5119758;27;19996;-57
2023/05/02 09:30:18;;;;;;;;;;;19.40;89.80;;;;;;5120872;27;19908;-59
2023/05/02 09:32:45;;;;;;;;;;;19.40;89.80;;;;;;5118584;27;19919;-62
2023/05/02 09:35:11;;;;;;;;;;;19.40;90.10;;;;;;5123631;27;19911;-61
2023/05/02 09:37:36;;;;;;;;;;;19.40;89.80;;;;;;5129705;27;20002;-62
2023/05/02 09:40:05;;;;;;;;;;;19.40;89.80;;;;;;5120404;27;19911;-60
2023/05/02 09:42:31;;;;;;;;;;;19.40;89.80;;;;;;5119374;27;19912;-59
2023/05/02 09:44:57;;;;;;;;;;;19.40;89.80;;;;;;5124426;27;20317;-59
2023/05/02 09:47:25;;;;;;;;;;;19.40;89.80;;;;;;5137690;27;20285;-59
2023/05/02 09:49:51;;;;;;;;;;;19.40;89.90;;;;;;5139301;27;20020;-58
2023/05/02 09:52:20;;;;;;;;;;;19.40;90.00;;;;;;5131738;27;20010;-58
2023/05/02 09:54:46;;;;;;;;;;;19.40;90.00;;;;;;5121832;27;19962;-60
2023/05/02 09:57:11;;;;;;;;;;;19.40;90.00;;;;;;5120573;27;19943;-59
2023/05/02 09:59:40;;;;;;;;;;;19.40;90.00;;;;;;5122539;27;19919;-60
2023/05/02 10:02:08;;;;;;;;;;;19.40;90.00;;;;;;5115724;27;19912;-59
2023/05/02 10:04:34;;;;;;;;;;;19.40;90.00;;;;;;5120348;27;19911;-59
2023/05/02 10:07:01;;;;;;;;;;;19.40;90.00;;;;;;5130195;27;19938;-58
2023/05/02 10:09:27;;;;;;;;;;;19.40;90.00;;;;;;5128589;27;19912;-54
2023/05/02 10:11:54;;;;;;;;;;;19.40;90.00;;;;;;5118724;27;19912;-58
2023/05/02 10:14:21;;;;;;;;;;;19.40;90.00;;;;;;5126522;27;19918;-60
2023/05/02 10:16:50;;;;;;;;;;;19.40;90.00;;;;;;5141054;27;19911;-61
2023/05/02 10:19:19;;;;;;;;;;;19.40;90.00;;;;;;5138993;27;19912;-57
2023/05/02 10:21:46;;;;;;;;;;;19.50;90.00;;;;;;5134288;27;19919;-58
2023/05/02 10:24:12;;;;;;;;;;;19.40;90.00;;;;;;5118237;27;19915;-57
2023/05/02 10:26:37;;;;;;;;;;;19.50;90.00;;;;;;5111799;27;19935;-59
2023/05/02 10:29:03;;;;;;;;;;;19.50;90.00;;;;;;5124947;27;19937;-53
2023/05/02 10:31:32;;;;;;;;;;;19.50;90.00;;;;;;5132012;27;19999;-52
2023/05/02 10:33:58;;;;;;;;;;;19.50;90.00;;;;;;5135441;27;19912;-53
2023/05/02 10:36:24;;;;;;;;;;;19.50;90.10;;;;;;5129286;27;19919;-54
2023/05/02 10:38:50;;;;;;;;;;;19.50;90.10;;;;;;5116345;28;19911;-55
2023/05/02 10:41:20;;;;;;;;;;;19.40;90.00;;;;;;5115636;28;19995;-56
2023/05/02 10:43:47;;;;;;;;;;;19.50;90.10;;;;;;5131966;27;19927;-53
2023/05/02 10:46:31;;;;;;;;;;;19.50;90.10;;;;;;5136073;27;19911;-53
2023/05/02 10:49:04;;;;;;;;;;;19.50;90.10;;;;;;5113921;27;19923;-54
2023/05/02 10:51:32;;;;;;;;;;;19.40;90.10;;;;;;5135480;27;19918;-55
2023/05/02 10:54:16;;;;;;;;;;;19.40;90.10;;;;;;5137393;27;19907;-52
2023/05/02 10:57:03;;;;;;;;;;;19.40;90.10;;;;;;5118024;27;19912;-50
2023/05/02 10:59:29;;;;;;;;;;;19.40;90.10;;;;;;5101924;27;19912;-53
2023/05/02 11:01:55;;;;;;;;;;;19.40;90.10;;;;;;5131390;27;19987;-58
2023/05/02 11:04:21;;;;;;;;;;;19.40;90.10;;;;;;5116455;27;20083;-54
2023/05/02 11:06:55;;;;;;;;;;;19.40;90.10;;;;;;5115164;27;19916;-56
2023/05/02 11:09:21;;;;;;;;;;;19.40;90.10;;;;;;5113037;27;19915;-55
2023/05/02 11:11:51;;;;;;;;;;;19.40;90.10;;;;;;5110018;27;20025;-58
2023/05/02 11:14:32;;;;;;;;;;;19.40;90.10;;;;;;5114961;28;20272;-57
2023/05/02 11:16:57;;;;;;;;;;;19.40;90.10;;;;;;5137247;27;19912;-54
2023/05/02 11:19:23;;;;;;;;;;;19.40;90.20;;;;;;5119997;27;20558;-51
2023/05/02 11:21:49;;;;;;;;;;;19.40;90.40;;;;;;5131308;27;19934;-54
2023/05/02 11:24:37;;;;;;;;;;;19.40;90.20;;;;;;5135774;27;19926;-54
2023/05/02 11:27:21;;;;;;;;;;;19.40;90.20;;;;;;5132191;27;19921;-55
2023/05/02 11:30:00;;;;;;;;;;;19.40;90.20;;;;;;5119913;27;19987;-59
2023/05/02 11:33:01;;;;;;;;;;;19.40;90.30;;;;;;5132573;27;19914;-65
2023/05/02 11:35:26;;;;;;;;;;;19.40;90.10;;;;;;5037208;28;19957;-71
2023/05/02 11:38:04;;;;;;;;;;;19.40;90.20;;;;;;5096674;27;20375;-63
2023/05/02 11:40:30;;;;;;;;;;;19.40;90.20;;;;;;5109104;27;19992;-72
2023/05/02 11:42:57;;;;;;;;;;;19.40;90.10;;;;;;5122802;27;19998;-66
2023/05/02 11:45:35;;;;;;;;;;;19.30;88.70;;;;;;5133731;27;19931;-70
2023/05/02 11:48:04;;;;;;;;;;;19.30;88.70;;;;;;5113535;27;19912;-64
2023/05/02 11:50:29;;;;;;;;;;;19.20;88.80;;;;;;5124151;27;19916;-60
2023/05/02 11:52:56;;;;;;;;;;;19.10;88.70;;;;;;5126974;27;19923;-61
2023/05/02 11:55:22;;;;;;;;;;;19.10;89.00;;;;;;5113268;27;20003;-63
2023/05/02 11:57:47;;;;;;;;;;;19.10;89.00;;;;;;5114102;27;19916;-64
2023/05/02 12:00:14;;;;;;;;;;;19.10;89.20;;;;;;5123859;27;19915;-64
2023/05/02 12:02:40;;;;;;;;;;;19.10;89.70;;;;;;5128361;27;19911;-64
2023/05/02 12:05:06;;;;;;;;;;;19.10;90.10;;;;;;5120535;27;19916;-64
2023/05/02 12:07:38;;;;;;;;;;;19.10;90.20;;;;;;5123307;27;20358;-63
2023/05/02 12:10:05;;;;;;;;;;;19.10;90.10;;;;;;5130327;27;19911;-64
2023/05/02 12:12:30;;;;;;;;;;;19.10;90.10;;;;;;5122197;27;19918;-64
2023/05/02 12:14:57;;;;;;;;;;;19.20;90.10;;;;;;5135352;27;19907;-64
2023/05/02 12:17:23;;;;;;;;;;;19.20;90.00;;;;;;5133989;27;19950;-63
2023/05/02 12:19:49;;;;;;;;;;;19.20;90.00;;;;;;5113568;28;19934;-63
2023/05/02 12:22:15;;;;;;;;;;;19.20;90.00;;;;;;5114681;28;19914;-64
2023/05/02 12:24:42;;;;;;;;;;;19.20;89.90;;;;;;5114357;28;20263;-64
2023/05/02 12:27:10;;;;;;;;;;;19.30;90.00;;;;;;5114834;28;19911;-64
2023/05/02 12:29:43;;;;;;;;;;;19.30;89.90;;;;;;5113291;28;19907;-62
2023/05/02 12:32:09;;;;;;;;;;;19.30;89.90;;;;;;5094270;28;19921;-64
2023/05/02 12:34:35;;;;;;;;;;;19.30;89.80;;;;;;5093810;28;19908;-64
2023/05/02 12:37:02;;;;;;;;;;;19.20;89.70;;;;;;5094083;28;19908;-64
2023/05/02 12:39:54;;;;;;;;;;;19.30;89.80;;;;;;5106203;28;19912;-64
2023/05/02 12:42:21;;;;;;;;;;;19.30;89.80;;;;;;5111104;28;19915;-64
2023/05/02 12:44:47;;;;;;;;;;;19.30;89.70;;;;;;5114220;28;20266;-63
2023/05/02 12:47:13;;;;;;;;;;;19.30;89.70;;;;;;5113787;28;19907;-63
2023/05/02 12:49:48;;;;;;;;;;;19.30;89.70;;;;;;5113741;28;19912;-64
2023/05/02 12:52:14;;;;;;;;;;;19.30;89.70;;;;;;5114563;28;19908;-64
2023/05/02 12:54:39;;;;;;;;;;;19.30;89.70;;;;;;5114550;28;20064;-64
2023/05/02 12:57:06;;;;;;;;;;;19.30;89.70;;;;;;5113191;28;20323;-64
2023/05/02 12:59:31;;;;;;;;;;;19.30;89.60;;;;;;5114436;28;20407;-64
2023/05/02 13:01:57;;;;;;;;;;;19.30;89.60;;;;;;5114043;28;19917;-63
2023/05/02 13:04:32;;;;;;;;;;;19.30;89.60;;;;;;5113038;28;19943;-64
2023/05/02 13:06:58;;;;;;;;;;;19.30;89.60;;;;;;5112446;28;20325;-63
2023/05/02 13:09:23;;;;;;;;;;;19.30;89.60;;;;;;5114494;28;20008;-63
2023/05/02 13:11:49;;;;;;;;;;;19.30;89.60;;;;;;5114368;28;20239;-63
2023/05/02 13:14:14;;;;;;;;;;;19.30;89.60;;;;;;5112680;28;19908;-64
2023/05/02 13:16:40;;;;;;;;;;;19.30;89.60;;;;;;5113584;28;19908;-64
2023/05/02 13:19:05;;;;;;;;;;;19.30;89.60;;;;;;5113349;28;19911;-63
2023/05/02 13:21:31;;;;;;;;;;;19.30;89.60;;;;;;5112702;28;20259;-64
2023/05/02 13:23:57;;;;;;;;;;;19.30;89.50;;;;;;5113970;28;19927;-62
2023/05/02 13:26:23;;;;;;;;;;;19.30;89.50;;;;;;5114009;28;19943;-63
2023/05/02 13:28:48;;;;;;;;;;;19.30;89.50;;;;;;5113371;28;20333;-62
2023/05/02 13:31:14;;;;;;;;;;;19.30;89.50;;;;;;5114098;28;19908;-63
2023/05/02 13:33:40;;;;;;;;;;;19.30;89.50;;;;;;5113779;28;19947;-63
2023/05/02 13:36:05;;;;;;;;;;;19.30;89.40;;;;;;5114311;28;19994;-63
2023/05/02 13:38:31;;;;;;;;;;;19.30;89.40;;;;;;5113161;28;20362;-63
2023/05/02 13:40:56;;;;;;;;;;;19.30;89.40;;;;;;5114045;28;19982;-62
2023/05/02 13:43:23;;;;;;;;;;;19.30;89.40;;;;;;5113928;28;19981;-62
2023/05/02 13:45:48;;;;;;;;;;;19.30;89.30;;;;;;5114201;28;19957;-63
2023/05/02 13:48:14;;;;;;;;;;;19.30;89.30;;;;;;5113060;28;19912;-64
2023/05/02 13:50:40;;;;;;;;;;;19.30;89.30;;;;;;5113882;28;19961;-63
2023/05/02 13:53:05;;;;;;;;;;;19.30;89.30;;;;;;5113483;28;19907;-64
2023/05/02 13:55:31;;;;;;;;;;;19.30;89.30;;;;;;5113417;28;19908;-63
2023/05/02 13:57:56;;;;;;;;;;;19.30;89.30;;;;;;5112677;28;20371;-63
2023/05/02 14:00:21;;;;;;;;;;;19.30;89.30;;;;;;5116971;27;19912;-62
2023/05/02 14:02:47;;;;;;;;;;;19.30;89.30;;;;;;5117433;28;20389;-63
2023/05/02 14:05:13;;;;;;;;;;;19.30;89.30;;;;;;5117306;27;19912;-63
2023/05/02 14:07:38;;;;;;;;;;;19.30;89.30;;;;;;5117257;27;19912;-63
2023/05/02 14:10:04;;;;;;;;;;;19.30;89.80;;;;;;5116634;28;20011;-62
2023/05/02 14:12:30;;;;;;;;;;;19.20;89.20;;;;;;5117211;28;19912;-63
2023/05/02 14:14:56;;;;;;;;;;;19.20;89.30;;;;;;5116971;28;19912;-63
2023/05/02 14:17:23;;;;;;;;;;;19.30;89.30;;;;;;5117351;28;19919;-62